Viewmont, North Carolina
Current Conditions -  °F | °C
As of 5:53 PM on Wednesday 22 Oct 2014 (Local Time) from KHKY Reporting Station
Clear Clear  
Wind Chill: 56°   Ceiling: Unl
Heat Index: 56°   Visibility: 10mi
Dew Point: 37°   Wind: 12mph
Humidity: 49%   Direction: 340°NNW
Pressure: 30.09"   Gusts: 18mph
Location:  35.7628°N, 81.3219°W
Report Text: KHKY 222153Z 34010G16KT 10SM CLR 13/03 A3009 RMK AO2 SLP180 T01330028
Loading
Personal Weather Stations






























Interactive Weather Map
Tropical Storm Tracking
New forecast layout! Learn more

10-Day Weather Forecast

Advertisements
Track Severe Weather on mobile